createdAt,value
2017-08-31T00:00:32.149Z,9.77
2017-08-31T00:03:00.512Z,10.00
2017-08-31T00:05:28.892Z,14.07
2017-08-31T00:07:57.765Z,10.33
2017-08-31T00:10:26.227Z,10.70
2017-08-31T00:12:54.636Z,11.53
2017-08-31T00:15:23.452Z,14.90
2017-08-31T00:17:52.658Z,9.20
2017-08-31T00:20:21.117Z,20.90
2017-08-31T00:22:49.519Z,21.37
2017-08-31T00:25:17.880Z,18.13
2017-08-31T00:27:46.268Z,8.33
2017-08-31T00:30:15.135Z,9.60
2017-08-31T00:32:43.545Z,13.33
2017-08-31T00:35:11.922Z,14.83
2017-08-31T00:37:41.222Z,14.90
2017-08-31T00:40:09.638Z,19.80
2017-08-31T00:42:38.018Z,11.93
2017-08-31T00:45:06.615Z,10.30
2017-08-31T00:47:35.125Z,11.53
2017-08-31T00:50:03.501Z,6.23
2017-08-31T00:52:32.016Z,13.90
2017-08-31T00:55:00.429Z,13.10
2017-08-31T00:57:28.824Z,12.30
2017-08-31T00:59:57.251Z,13.27
2017-08-31T01:02:25.696Z,12.03
2017-08-31T01:04:54.096Z,13.57
2017-08-31T01:07:22.740Z,17.60
2017-08-31T01:09:51.146Z,13.77
2017-08-31T01:12:20.281Z,9.17
2017-08-31T01:14:49.011Z,9.63
2017-08-31T01:17:17.382Z,11.13
2017-08-31T01:19:45.795Z,13.23
2017-08-31T01:22:15.941Z,11.97
2017-08-31T01:24:45.197Z,8.40
2017-08-31T01:27:13.642Z,12.53
2017-08-31T01:29:42.242Z,11.53
2017-08-31T01:32:10.668Z,13.23
2017-08-31T01:34:39.132Z,16.67
2017-08-31T01:37:07.694Z,9.70
2017-08-31T01:39:36.142Z,10.70
2017-08-31T01:42:04.566Z,9.20
2017-08-31T01:44:33.299Z,8.90
2017-08-31T01:47:01.659Z,13.43
2017-08-31T01:49:30.277Z,15.03
2017-08-31T01:51:58.836Z,12.23
2017-08-31T01:54:27.280Z,10.80
2017-08-31T01:56:55.664Z,8.70
2017-08-31T01:59:24.426Z,8.67
2017-08-31T02:01:52.826Z,8.73
2017-08-31T02:04:21.975Z,18.87
2017-08-31T02:06:50.374Z,13.90
2017-08-31T02:09:18.730Z,15.33
2017-08-31T02:11:48.044Z,6.77
2017-08-31T02:14:16.545Z,9.03
2017-08-31T02:16:44.933Z,8.73
2017-08-31T02:19:13.288Z,11.63
2017-08-31T02:21:41.995Z,10.73
2017-08-31T02:24:10.634Z,11.40
2017-08-31T02:26:39.033Z,10.87
2017-08-31T02:29:07.813Z,10.87
2017-08-31T02:31:36.184Z,9.30
2017-08-31T02:34:04.610Z,13.17
2017-08-31T02:36:33.823Z,17.63
2017-08-31T02:39:02.205Z,5.60
2017-08-31T02:41:30.574Z,10.87
2017-08-31T02:43:59.086Z,4.90
2017-08-31T02:46:27.471Z,13.83
2017-08-31T02:48:56.845Z,10.80
2017-08-31T02:51:25.330Z,11.13
2017-08-31T02:53:53.730Z,7.00
2017-08-31T02:56:22.109Z,12.80
2017-08-31T02:58:50.870Z,10.63
2017-08-31T03:01:19.246Z,10.73
2017-08-31T03:03:47.626Z,8.27
2017-08-31T03:06:16.122Z,7.53
2017-08-31T03:08:44.520Z,6.47
2017-08-31T03:11:12.880Z,9.10
2017-08-31T03:13:41.821Z,14.83
2017-08-31T03:16:10.220Z,10.77
2017-08-31T03:18:39.341Z,9.00
2017-08-31T03:21:08.185Z,7.50
2017-08-31T03:23:36.550Z,9.57
2017-08-31T03:26:04.946Z,8.77
2017-08-31T03:28:33.641Z,8.37
2017-08-31T03:31:02.000Z,8.30
2017-08-31T03:33:30.380Z,12.03
2017-08-31T03:35:58.798Z,7.63
2017-08-31T03:38:27.388Z,9.33
2017-08-31T03:40:55.768Z,7.57
2017-08-31T03:43:24.473Z,10.43
2017-08-31T03:45:52.855Z,9.57
2017-08-31T03:48:21.248Z,12.67
2017-08-31T03:50:49.900Z,11.23
2017-08-31T03:53:18.350Z,9.63
2017-08-31T03:55:46.728Z,8.03
2017-08-31T03:58:15.528Z,14.10
2017-08-31T04:00:43.910Z,12.17
2017-08-31T04:03:12.513Z,9.37
2017-08-31T04:05:41.135Z,8.93
2017-08-31T04:08:09.518Z,8.90
2017-08-31T04:10:37.885Z,15.40
2017-08-31T04:13:06.600Z,8.07
2017-08-31T04:15:35.779Z,9.03
2017-08-31T04:18:04.143Z,6.90
2017-08-31T04:20:32.752Z,7.20
2017-08-31T04:23:01.133Z,9.20
2017-08-31T04:25:29.478Z,8.10
2017-08-31T04:27:58.044Z,9.10
2017-08-31T04:30:26.433Z,11.83
2017-08-31T04:32:54.790Z,10.13
2017-08-31T04:35:23.343Z,13.00
2017-08-31T04:37:52.536Z,12.47
2017-08-31T04:40:20.889Z,9.70
2017-08-31T04:42:49.409Z,6.83
2017-08-31T04:45:18.540Z,12.77
2017-08-31T04:47:46.938Z,9.77
2017-08-31T04:50:15.754Z,8.53
2017-08-31T04:52:44.212Z,9.10
2017-08-31T04:55:12.791Z,9.00
2017-08-31T07:51:54.544Z,2.30
2017-08-31T07:54:23.769Z,4.60
2017-08-31T07:56:52.126Z,1.27
2017-08-31T07:59:23.602Z,2.00
2017-08-31T08:01:51.974Z,0.87
2017-08-31T08:04:20.407Z,1.37
2017-08-31T08:06:48.807Z,1.60
2017-08-31T08:09:17.299Z,1.07
2017-08-31T08:11:45.660Z,1.80
2017-08-31T08:14:14.057Z,3.73
2017-08-31T08:16:42.828Z,0.83
2017-08-31T08:19:11.671Z,0.97
2017-08-31T08:21:40.811Z,1.33
2017-08-31T08:24:09.197Z,2.60
2017-08-31T08:26:38.493Z,1.47
2017-08-31T08:29:06.945Z,1.30
2017-08-31T08:31:35.373Z,2.20
2017-08-31T08:34:04.546Z,1.33
2017-08-31T08:36:32.917Z,2.17
2017-08-31T08:39:02.547Z,3.00
2017-08-31T08:41:30.960Z,1.20
2017-08-31T08:43:59.979Z,1.50
2017-08-31T08:46:28.787Z,0.90
2017-08-31T08:48:57.209Z,1.27
2017-08-31T08:51:25.637Z,0.80
2017-08-31T08:53:54.073Z,1.23
2017-08-31T08:56:22.461Z,1.90
2017-08-31T08:58:54.630Z,1.13
2017-08-31T09:01:23.409Z,1.00
2017-08-31T09:03:51.820Z,3.87
2017-08-31T09:06:20.176Z,1.33
2017-08-31T09:08:48.585Z,1.40
2017-08-31T09:11:17.042Z,3.07
2017-08-31T09:13:45.473Z,1.37
2017-08-31T09:16:15.630Z,1.70
2017-08-31T09:18:44.047Z,3.03
2017-08-31T09:21:12.515Z,1.03
2017-08-31T09:23:40.943Z,1.30
2017-08-31T09:26:09.351Z,5.90
2017-08-31T09:28:37.738Z,0.80
2017-08-31T09:31:06.333Z,1.80
2017-08-31T09:33:34.746Z,2.43
2017-08-31T09:36:03.172Z,1.30
2017-08-31T09:38:32.380Z,2.13
2017-08-31T09:41:00.761Z,1.93
2017-08-31T09:43:31.215Z,1.87
2017-08-31T09:46:00.261Z,1.63
2017-08-31T09:48:28.636Z,1.47
2017-08-31T09:50:57.013Z,1.33
2017-08-31T09:53:25.594Z,4.60
2017-08-31T09:55:54.007Z,1.50
2017-08-31T09:58:22.432Z,1.10
2017-08-31T10:00:51.510Z,1.17
2017-08-31T10:03:21.211Z,1.10
2017-08-31T10:05:49.675Z,3.07
2017-08-31T10:08:18.378Z,1.00
2017-08-31T10:10:46.818Z,2.50
2017-08-31T10:13:16.123Z,2.17
2017-08-31T10:15:44.625Z,1.23
2017-08-31T10:18:13.037Z,1.17
2017-08-31T10:20:42.793Z,1.17
2017-08-31T10:23:11.407Z,0.93
2017-08-31T10:25:39.872Z,1.00
2017-08-31T10:28:08.335Z,0.87
2017-08-31T10:30:38.438Z,1.43
2017-08-31T10:33:07.775Z,1.20
2017-08-31T10:35:36.883Z,1.13
2017-08-31T10:38:06.869Z,3.83
2017-08-31T10:40:35.347Z,2.70
2017-08-31T10:43:03.796Z,5.27
2017-08-31T10:45:32.253Z,3.60
2017-08-31T10:48:01.064Z,1.73
2017-08-31T10:50:29.549Z,1.37
2017-08-31T10:52:57.991Z,2.60
2017-08-31T10:55:26.416Z,2.17
2017-08-31T10:57:57.147Z,3.13
2017-08-31T11:00:25.651Z,3.47
2017-08-31T11:02:54.118Z,2.17
2017-08-31T11:05:23.377Z,2.97
2017-08-31T11:07:51.857Z,1.43
2017-08-31T11:10:21.213Z,2.63
2017-08-31T11:12:49.639Z,1.70
2017-08-31T11:15:19.435Z,1.70
2017-08-31T11:17:47.938Z,1.50
2017-08-31T11:20:17.998Z,1.67
2017-08-31T11:22:46.668Z,1.43
2017-08-31T11:25:15.507Z,1.50
2017-08-31T11:27:44.023Z,1.20
2017-08-31T11:30:13.293Z,1.30
2017-08-31T11:32:41.852Z,1.63
2017-08-31T11:35:10.293Z,3.63
2017-08-31T11:37:39.586Z,3.13
2017-08-31T11:40:08.594Z,1.37
2017-08-31T11:42:37.925Z,1.20
2017-08-31T11:45:07.453Z,3.23
2017-08-31T11:47:35.968Z,1.43
2017-08-31T11:50:06.129Z,2.17
2017-08-31T11:52:34.672Z,4.27
2017-08-31T11:55:03.344Z,2.30
2017-08-31T11:57:31.712Z,1.83
2017-08-31T12:00:01.485Z,3.27
2017-08-31T12:02:29.927Z,3.37
2017-08-31T12:04:58.374Z,2.43
2017-08-31T12:07:27.559Z,2.97
2017-08-31T12:09:56.461Z,2.37
2017-08-31T12:12:24.854Z,5.60
2017-08-31T12:14:53.674Z,1.70
2017-08-31T12:17:22.261Z,2.20
2017-08-31T12:19:50.879Z,2.50
2017-08-31T12:22:20.405Z,2.47
2017-08-31T12:24:49.879Z,1.67
2017-08-31T12:27:18.304Z,2.10
2017-08-31T12:29:47.525Z,2.13
2017-08-31T12:32:16.880Z,1.80
2017-08-31T12:34:45.483Z,3.10
2017-08-31T12:37:14.026Z,1.70
2017-08-31T12:39:42.456Z,1.80
2017-08-31T12:42:10.912Z,3.43
2017-08-31T12:44:40.565Z,1.17
2017-08-31T12:47:08.960Z,1.40
2017-08-31T12:49:39.243Z,1.57
2017-08-31T12:52:08.189Z,4.83
2017-08-31T12:54:36.986Z,2.07
2017-08-31T12:57:06.340Z,2.50
2017-08-31T12:59:36.049Z,2.30
2017-08-31T13:02:04.430Z,2.40
2017-08-31T13:04:33.670Z,2.60
2017-08-31T13:07:02.130Z,3.40
2017-08-31T13:09:33.717Z,2.50
2017-08-31T13:12:02.103Z,3.17
2017-08-31T13:14:30.599Z,3.00
2017-08-31T13:16:59.184Z,2.10
2017-08-31T13:19:28.538Z,2.67
2017-08-31T13:21:58.082Z,2.10
2017-08-31T13:24:27.231Z,1.50
2017-08-31T13:26:56.336Z,1.30
2017-08-31T13:29:24.922Z,1.37
2017-08-31T13:31:53.333Z,2.70
2017-08-31T13:34:23.301Z,2.47
2017-08-31T13:36:51.745Z,1.43
2017-08-31T13:39:20.111Z,1.53
2017-08-31T13:41:48.531Z,1.60
2017-08-31T13:44:16.988Z,1.67
2017-08-31T13:46:45.388Z,1.43
2017-08-31T13:49:14.372Z,2.70
2017-08-31T13:51:43.013Z,1.83
2017-08-31T13:54:11.685Z,1.13
2017-08-31T13:56:40.111Z,2.60
2017-08-31T13:59:08.776Z,1.20
2017-08-31T14:01:38.014Z,1.47
2017-08-31T14:04:06.398Z,1.60
2017-08-31T14:06:35.926Z,1.23
2017-08-31T14:09:05.036Z,1.10
2017-08-31T14:11:33.626Z,3.00
2017-08-31T14:14:03.189Z,1.60
2017-08-31T14:16:31.570Z,2.07
2017-08-31T14:18:59.994Z,3.10
2017-08-31T14:21:29.401Z,1.50
2017-08-31T14:23:57.825Z,1.50
2017-08-31T14:26:26.806Z,1.50
2017-08-31T14:28:55.361Z,5.43
2017-08-31T14:31:24.553Z,1.43
2017-08-31T14:33:53.679Z,1.60
2017-08-31T14:36:22.224Z,1.80
2017-08-31T14:38:50.624Z,1.53
2017-08-31T14:41:19.260Z,2.50
2017-08-31T14:43:47.687Z,2.10
2017-08-31T14:46:16.095Z,2.70
2017-08-31T14:48:44.499Z,1.40
2017-08-31T14:51:14.482Z,2.83
2017-08-31T14:53:42.863Z,1.40
2017-08-31T14:56:11.452Z,1.50
2017-08-31T14:58:39.938Z,4.87
2017-08-31T15:01:08.449Z,2.03
2017-08-31T15:03:37.671Z,3.83
2017-08-31T15:06:06.866Z,1.87
2017-08-31T15:08:35.305Z,1.40
2017-08-31T15:11:03.732Z,1.30
2017-08-31T15:13:32.400Z,1.63
2017-08-31T15:16:01.545Z,1.67
2017-08-31T15:18:29.991Z,2.87
2017-08-31T15:20:58.543Z,1.50
2017-08-31T15:23:28.593Z,1.50
2017-08-31T15:25:56.999Z,2.20
2017-08-31T15:28:25.600Z,1.70
2017-08-31T15:30:54.829Z,1.90
2017-08-31T15:33:24.988Z,2.27
2017-08-31T15:35:54.074Z,2.10
2017-08-31T15:38:22.461Z,2.90
2017-08-31T15:40:50.835Z,3.93
2017-08-31T15:43:19.240Z,1.90
2017-08-31T15:45:47.661Z,2.47
2017-08-31T15:48:16.115Z,2.00
2017-08-31T15:50:44.849Z,2.73
2017-08-31T15:53:13.322Z,1.30
2017-08-31T15:55:41.679Z,1.37
2017-08-31T15:58:10.153Z,1.40
2017-08-31T16:00:38.520Z,4.70
2017-08-31T16:03:06.911Z,2.83
2017-08-31T16:05:35.321Z,3.07
2017-08-31T16:08:03.732Z,1.40
2017-08-31T16:10:32.209Z,2.57
2017-08-31T16:13:00.862Z,1.30
2017-08-31T16:15:30.337Z,1.73
2017-08-31T16:17:58.776Z,1.63
2017-08-31T16:20:28.774Z,1.73
2017-08-31T16:22:57.267Z,1.80
2017-08-31T16:25:25.695Z,1.40
2017-08-31T16:27:54.426Z,2.97
2017-08-31T16:30:22.926Z,1.77
2017-08-31T16:32:51.952Z,2.30
2017-08-31T16:35:20.760Z,2.43
2017-08-31T16:37:49.927Z,1.90
2017-08-31T16:40:18.326Z,2.30
2017-08-31T16:42:47.066Z,2.40
2017-08-31T16:45:15.462Z,1.90
2017-08-31T16:47:43.832Z,1.93
2017-08-31T16:50:13.697Z,3.43
2017-08-31T16:52:42.103Z,1.77
2017-08-31T16:55:10.484Z,3.93
2017-08-31T16:57:39.013Z,2.63
2017-08-31T17:00:07.763Z,1.90
2017-08-31T17:02:37.036Z,2.50
2017-08-31T17:05:05.476Z,2.30
2017-08-31T17:07:33.898Z,1.53
2017-08-31T17:10:03.047Z,2.73
2017-08-31T17:12:31.463Z,2.07
2017-08-31T17:14:59.870Z,2.13
2017-08-31T17:17:28.463Z,2.80
2017-08-31T17:19:56.945Z,2.23
2017-08-31T17:22:25.337Z,1.93
2017-08-31T17:24:53.758Z,1.90
2017-08-31T17:27:22.979Z,1.87
2017-08-31T17:29:51.349Z,2.40
2017-08-31T17:32:19.725Z,2.53
2017-08-31T17:34:48.458Z,3.10
2017-08-31T17:37:16.978Z,2.90
2017-08-31T17:39:45.360Z,3.97
2017-08-31T17:42:13.836Z,3.43
2017-08-31T17:44:42.238Z,8.03
2017-08-31T17:47:10.608Z,4.03
2017-08-31T17:49:39.268Z,3.57
2017-08-31T17:52:08.408Z,4.10
2017-08-31T17:54:36.801Z,4.00
2017-08-31T17:57:05.525Z,4.13
2017-08-31T17:59:33.913Z,5.30
2017-08-31T18:02:03.149Z,5.57
2017-08-31T18:04:31.690Z,3.93
2017-08-31T18:07:00.105Z,4.07
2017-08-31T18:09:28.486Z,7.27
2017-08-31T18:11:57.638Z,4.50
2017-08-31T18:14:26.082Z,5.60
2017-08-31T18:16:54.573Z,3.90
2017-08-31T18:19:23.480Z,7.10
2017-08-31T18:21:51.982Z,4.30
2017-08-31T18:24:21.096Z,7.93
2017-08-31T18:26:49.548Z,3.97
2017-08-31T18:29:17.917Z,4.77
2017-08-31T18:31:46.320Z,7.80
2017-08-31T18:34:15.527Z,4.63
2017-08-31T18:36:43.913Z,7.70
2017-08-31T18:39:12.490Z,6.20
2017-08-31T18:41:41.174Z,5.10
2017-08-31T18:44:09.602Z,10.73
2017-08-31T18:46:37.968Z,4.23
2017-08-31T18:49:06.553Z,4.17
2017-08-31T18:51:34.954Z,5.23
2017-08-31T18:54:03.486Z,5.70
2017-08-31T18:56:32.948Z,5.70
2017-08-31T18:59:01.379Z,5.80
2017-08-31T19:01:29.789Z,6.23
2017-08-31T19:03:58.569Z,5.37
2017-08-31T19:06:27.059Z,5.30
2017-08-31T19:08:55.479Z,7.93
2017-08-31T19:11:24.972Z,6.33
2017-08-31T19:13:53.393Z,5.60
2017-08-31T19:16:21.788Z,6.17
2017-08-31T19:18:50.301Z,7.60
2017-08-31T19:21:19.368Z,6.53
2017-08-31T19:23:47.761Z,6.33
2017-08-31T19:26:16.457Z,6.60
2017-08-31T19:28:44.909Z,6.80
2017-08-31T19:31:13.291Z,6.00
2017-08-31T19:33:42.324Z,6.97
2017-08-31T19:36:10.746Z,10.20
2017-08-31T19:38:39.125Z,6.40
2017-08-31T19:41:07.654Z,7.27
2017-08-31T19:43:36.016Z,7.60
2017-08-31T19:46:04.440Z,7.70
2017-08-31T19:48:33.810Z,6.13
2017-08-31T19:51:02.179Z,7.57
2017-08-31T19:53:31.342Z,12.93
2017-08-31T19:56:00.192Z,6.80
2017-08-31T19:58:29.321Z,9.23
2017-08-31T20:00:57.746Z,9.50
2017-08-31T20:03:26.169Z,7.70
2017-08-31T20:05:54.807Z,8.63
2017-08-31T20:08:23.184Z,6.90
2017-08-31T20:10:51.753Z,9.43
2017-08-31T20:13:20.104Z,10.33
2017-08-31T20:15:48.560Z,8.20
2017-08-31T20:18:17.142Z,9.53
2017-08-31T20:20:45.525Z,10.33
2017-08-31T20:23:14.861Z,11.03
2017-08-31T20:25:43.485Z,8.87
2017-08-31T20:28:11.887Z,11.17
2017-08-31T20:30:40.491Z,11.13
2017-08-31T20:33:09.011Z,11.70
2017-08-31T20:35:37.409Z,11.27
2017-08-31T20:38:05.767Z,8.37
2017-08-31T20:40:34.352Z,10.53
2017-08-31T20:43:02.779Z,10.07
2017-08-31T20:45:31.209Z,9.80
2017-08-31T20:48:00.391Z,10.30
2017-08-31T20:50:28.769Z,13.13
2017-08-31T20:52:57.268Z,13.90
2017-08-31T20:55:25.756Z,10.57
2017-08-31T20:57:54.202Z,12.80
2017-08-31T21:00:22.595Z,10.23
2017-08-31T21:02:51.162Z,11.70
2017-08-31T21:05:19.547Z,11.83
2017-08-31T21:07:48.023Z,9.03
2017-08-31T21:10:16.555Z,11.10
2017-08-31T21:12:45.675Z,10.50
2017-08-31T21:15:14.822Z,10.27
2017-08-31T21:17:43.216Z,9.87
2017-08-31T21:20:11.902Z,12.60
2017-08-31T21:22:40.265Z,15.30
2017-08-31T21:25:09.465Z,14.67
2017-08-31T21:27:37.821Z,10.10
2017-08-31T21:30:06.222Z,11.03
2017-08-31T21:32:34.719Z,13.93
2017-08-31T21:35:03.114Z,9.40
2017-08-31T21:37:31.477Z,19.23
2017-08-31T21:40:00.253Z,13.77
2017-08-31T21:42:28.641Z,13.07
2017-08-31T21:44:57.046Z,8.63
2017-08-31T21:47:25.547Z,10.80
2017-08-31T21:49:53.916Z,8.40
2017-08-31T21:52:22.293Z,11.27
2017-08-31T21:54:50.980Z,12.40
2017-08-31T21:57:19.380Z,12.80
2017-08-31T21:59:47.797Z,10.90
2017-08-31T22:02:16.678Z,15.10
2017-08-31T22:04:45.088Z,11.60
2017-08-31T22:07:14.560Z,11.40
2017-08-31T22:09:43.433Z,16.60
2017-08-31T22:12:11.793Z,10.60
2017-08-31T22:14:40.152Z,13.83
2017-08-31T22:17:09.235Z,11.73
2017-08-31T22:19:37.634Z,11.70
2017-08-31T22:22:06.035Z,13.70
2017-08-31T22:24:34.760Z,10.53
2017-08-31T22:27:03.486Z,12.70
2017-08-31T22:29:31.878Z,15.03
2017-08-31T22:32:00.595Z,15.00
2017-08-31T22:34:28.995Z,28.67
2017-08-31T22:36:57.390Z,12.93
2017-08-31T22:39:25.965Z,16.43
2017-08-31T22:41:54.356Z,18.30
2017-08-31T22:44:22.796Z,13.17
2017-08-31T22:46:51.225Z,16.30
2017-08-31T22:49:19.599Z,16.10
2017-08-31T22:51:48.785Z,15.30
2017-08-31T22:54:21.785Z,13.00
2017-08-31T22:56:52.805Z,11.90
2017-08-31T22:59:21.197Z,12.77
2017-08-31T23:01:49.638Z,12.33
2017-08-31T23:04:18.027Z,11.83
2017-08-31T23:06:47.350Z,12.10
2017-08-31T23:09:16.109Z,11.77
2017-08-31T23:11:44.526Z,12.47
2017-08-31T23:14:12.907Z,14.07
2017-08-31T23:16:41.659Z,14.53
2017-08-31T23:19:10.071Z,15.30
2017-08-31T23:21:39.031Z,19.23
2017-08-31T23:24:07.620Z,18.03
2017-08-31T23:26:36.007Z,13.83
2017-08-31T23:29:04.606Z,14.73
2017-08-31T23:31:33.852Z,16.53
2017-08-31T23:34:02.285Z,14.60
2017-08-31T23:36:30.685Z,15.13
2017-08-31T23:38:59.103Z,16.00
2017-08-31T23:41:27.476Z,19.70
2017-08-31T23:43:55.862Z,24.27
2017-08-31T23:46:24.404Z,16.20
2017-08-31T23:48:52.771Z,15.07
2017-08-31T23:51:21.134Z,15.27
2017-08-31T23:53:50.400Z,19.87
2017-08-31T23:56:19.549Z,16.50
2017-08-31T23:58:47.964Z,17.73
